Time;durP1;ratioP1;P1;durP2;ratioP2;P2;SDS_P1;SDS_P2;PMS_P1;PMS_P2;Temp;Humidity;BMP_temperature;BMP_pressure;BME280_temperature;BME280_humidity;BME280_pressure;Samples;Min_cycle;Max_cycle;Signal;HPM_P1;HPM_P2
2021/12/19 00:02:02;;;;;;;29.10;12.13;;;;;;;5.42;100.00;103035.28;5030185;28;20061;-83
2021/12/19 00:08:28;;;;;;;28.23;11.43;;;;;;;5.36;100.00;103044.44;5016159;28;20084;-83
2021/12/19 00:09:56;;;;;;;32.92;13.55;;;;;;;5.25;100.00;103032.59;5021749;28;20071;-83
2021/12/19 00:12:22;;;;;;;34.75;14.30;;;;;;;5.19;100.00;103034.59;5031150;28;20032;-83
2021/12/19 00:14:48;;;;;;;35.38;14.38;;;;;;;5.12;100.00;103037.63;5012684;28;20065;-83
2021/12/19 00:17:13;;;;;;;32.78;13.75;;;;;;;5.08;100.00;103023.63;5030574;28;20041;-82
2021/12/19 00:19:39;;;;;;;33.90;12.77;;;;;;;5.07;100.00;103029.03;5030127;28;20049;-83
2021/12/19 00:22:04;;;;;;;30.17;13.15;;;;;;;5.03;100.00;103020.31;5021961;28;20449;-83
2021/12/19 00:24:29;;;;;;;24.75;9.80;;;;;;;4.99;100.00;103024.06;5011749;28;20041;-82
2021/12/19 00:26:55;;;;;;;17.67;8.48;;;;;;;4.93;100.00;103017.25;5025422;28;20053;-83
2021/12/19 00:29:20;;;;;;;17.83;8.63;;;;;;;4.92;100.00;103006.66;5027559;28;21449;-83
2021/12/19 00:31:48;;;;;;;19.33;8.80;;;;;;;4.91;100.00;103007.59;5028325;28;20725;-83
2021/12/19 00:34:15;;;;;;;22.30;9.63;;;;;;;4.91;100.00;103007.59;5037291;28;20042;-83
2021/12/19 00:36:41;;;;;;;23.10;9.20;;;;;;;4.90;100.00;103000.56;5029852;28;20458;-83
2021/12/19 00:39:07;;;;;;;22.85;10.02;;;;;;;4.87;100.00;102992.72;5029384;28;20040;-83
2021/12/19 00:41:32;;;;;;;19.60;8.82;;;;;;;4.88;100.00;102997.09;5029097;28;20045;-82
2021/12/19 00:44:09;;;;;;;19.63;8.93;;;;;;;4.86;100.00;103005.19;4996061;28;20387;-82
2021/12/19 00:46:48;;;;;;;19.88;8.30;;;;;;;4.83;100.00;103005.28;5030118;28;20076;-82
2021/12/19 00:49:15;;;;;;;15.10;6.90;;;;;;;4.84;100.00;102999.06;5009613;28;20448;-83
2021/12/19 00:51:40;;;;;;;20.83;8.95;;;;;;;4.85;100.00;102997.25;5028952;28;20042;-83
2021/12/19 00:54:10;;;;;;;21.92;8.77;;;;;;;4.83;100.00;102999.97;5029116;28;20040;-82
2021/12/19 00:56:38;;;;;;;20.33;8.80;;;;;;;4.84;100.00;102990.22;5028767;28;20519;-82
2021/12/19 00:59:04;;;;;;;21.83;10.05;;;;;;;4.81;100.00;102995.69;5027690;28;20048;-82
2021/12/19 01:01:30;;;;;;;20.42;8.15;;;;;;;4.83;100.00;102981.34;5021590;28;20045;-83
2021/12/19 01:03:55;;;;;;;22.33;9.00;;;;;;;4.82;100.00;102984.09;5011086;28;20217;-83
2021/12/19 01:06:21;;;;;;;20.60;9.02;;;;;;;4.82;100.00;102976.97;5006179;28;20049;-83
2021/12/19 01:08:48;;;;;;;19.15;8.43;;;;;;;4.83;100.00;102980.50;5012455;28;20128;-82
2021/12/19 01:11:14;;;;;;;24.75;10.20;;;;;;;4.83;100.00;102976.03;5021881;28;20123;-83
2021/12/19 01:13:39;;;;;;;21.23;9.27;;;;;;;4.82;100.00;102978.78;5020164;28;20041;-83
2021/12/19 01:16:06;;;;;;;21.55;9.20;;;;;;;4.86;100.00;102975.03;5020785;28;20053;-83
2021/12/19 01:18:31;;;;;;;20.60;8.93;;;;;;;4.87;100.00;102959.00;5037095;28;20052;-83
2021/12/19 01:20:57;;;;;;;17.90;8.00;;;;;;;4.87;100.00;102963.47;5006410;28;20393;-82
2021/12/19 01:23:23;;;;;;;16.42;6.93;;;;;;;4.88;100.00;102962.53;5017532;28;20549;-82
2021/12/19 01:25:49;;;;;;;20.73;7.50;;;;;;;4.84;100.00;102958.28;5022083;28;20053;-83
2021/12/19 01:28:15;;;;;;;15.25;7.13;;;;;;;4.86;100.00;102959.06;5024404;28;20041;-83
2021/12/19 01:30:40;;;;;;;18.25;8.00;;;;;;;4.89;100.00;102962.47;5021056;28;20401;-83
2021/12/19 01:33:06;;;;;;;15.25;6.82;;;;;;;4.86;100.00;102967.03;5023446;28;20056;-82
2021/12/19 01:35:32;;;;;;;15.18;5.95;;;;;;;4.87;100.00;102955.50;5018823;28;20037;-82
2021/12/19 01:37:57;;;;;;;12.73;5.20;;;;;;;4.86;100.00;102959.94;5022545;28;20048;-83
2021/12/19 01:40:23;;;;;;;16.05;6.13;;;;;;;4.90;100.00;102958.00;5026658;28;20367;-83
2021/12/19 01:42:53;;;;;;;16.45;7.13;;;;;;;4.91;100.00;102959.72;5022113;28;20405;-83
2021/12/19 01:45:36;;;;;;;12.43;6.07;;;;;;;4.92;100.00;102961.41;5021187;28;20091;-83
2021/12/19 01:48:04;;;;;;;16.38;6.32;;;;;;;4.93;100.00;102960.50;5032291;28;20041;-83
2021/12/19 01:50:31;;;;;;;16.65;6.35;;;;;;;4.93;100.00;102949.88;5022107;28;20147;-83
2021/12/19 01:52:58;;;;;;;13.13;5.53;;;;;;;4.89;100.00;102953.59;5021847;28;20798;-83
2021/12/19 01:55:23;;;;;;;12.85;4.95;;;;;;;4.89;100.00;102948.28;5023040;28;20743;-83
2021/12/19 01:57:49;;;;;;;16.55;6.97;;;;;;;4.94;100.00;102940.94;5021112;28;20156;-82
2021/12/19 02:00:39;;;;;;;15.10;6.25;;;;;;;4.92;100.00;102945.47;5020119;28;20367;-83
2021/12/19 02:03:06;;;;;;;15.05;6.15;;;;;;;4.91;100.00;102943.75;5017698;28;20045;-83
2021/12/19 02:05:32;;;;;;;16.15;6.88;;;;;;;4.95;100.00;102940.00;5019308;28;20482;-83
2021/12/19 02:07:59;;;;;;;15.00;6.38;;;;;;;4.96;100.00;102931.09;5024841;28;20051;-82
2021/12/19 02:10:27;;;;;;;12.88;5.63;;;;;;;4.95;100.00;102929.38;5038205;28;20196;-83
2021/12/19 02:12:54;;;;;;;13.43;5.50;;;;;;;4.95;100.00;102937.34;4996117;28;20383;-83
2021/12/19 02:15:22;;;;;;;17.60;6.57;;;;;;;4.94;100.00;102928.47;5020369;28;20073;-83
2021/12/19 02:17:50;;;;;;;11.32;4.47;;;;;;;4.95;100.00;102929.38;5004869;28;20411;-83
2021/12/19 02:20:17;;;;;;;16.08;5.53;;;;;;;4.99;100.00;102925.59;5021823;28;20048;-83
2021/12/19 02:22:43;;;;;;;12.07;5.07;;;;;;;5.02;100.00;102929.91;5019227;28;20152;-83
2021/12/19 02:25:10;;;;;;;11.60;4.18;;;;;;;5.02;100.00;102925.44;5020338;28;20128;-83
2021/12/19 02:27:36;;;;;;;11.95;5.18;;;;;;;5.03;100.00;102924.50;5021577;28;20033;-83
2021/12/19 02:30:03;;;;;;;14.68;5.32;;;;;;;5.02;100.00;102917.47;5010853;28;20725;-83
2021/12/19 02:32:30;;;;;;;13.82;4.53;;;;;;;5.01;100.00;102912.25;5019729;28;20434;-83
2021/12/19 02:34:59;;;;;;;14.40;4.90;;;;;;;5.02;100.00;102917.47;5005633;28;20045;-83
2021/12/19 02:48:11;;;;;;;14.00;6.50;;;;;;;4.96;100.00;102904.47;5041163;28;20036;-83
2021/12/19 02:50:49;;;;;;;15.25;6.05;;;;;;;4.97;100.00;102900.88;5039974;28;20432;-83
2021/12/19 02:53:23;;;;;;;15.35;6.78;;;;;;;5.02;100.00;102904.16;5038888;28;20505;-83
2021/12/19 02:55:48;;;;;;;11.68;4.70;;;;;;;4.96;100.00;102893.84;5023569;28;20499;-83
2021/12/19 02:58:14;;;;;;;11.65;4.50;;;;;;;5.00;100.00;102883.88;5041676;28;20056;-83
2021/12/19 03:00:39;;;;;;;14.30;5.22;;;;;;;4.99;100.00;102883.03;5004749;28;20409;-83
2021/12/19 03:03:05;;;;;;;11.73;4.57;;;;;;;4.96;100.00;102884.03;5042647;28;20048;-83
2021/12/19 03:05:33;;;;;;;13.60;5.55;;;;;;;5.01;100.00;102881.16;5004559;28;20081;-83
2021/12/19 03:08:02;;;;;;;13.53;4.97;;;;;;;5.01;100.00;102870.53;5024370;28;20378;-83
2021/12/19 03:18:19;;;;;;;12.02;4.65;;;;;;;5.03;100.00;102863.31;5003829;28;20059;-83
2021/12/19 03:20:44;;;;;;;13.52;5.18;;;;;;;5.05;100.00;102856.09;5034410;28;20486;-83
2021/12/19 03:23:12;;;;;;;16.17;5.25;;;;;;;5.06;100.00;102857.81;5016638;28;20059;-83
2021/12/19 03:25:38;;;;;;;13.73;6.18;;;;;;;5.10;100.00;102843.44;5019152;28;20056;-83
2021/12/19 03:28:07;;;;;;;14.70;5.38;;;;;;;5.08;100.00;102833.81;5021331;28;20052;-83
2021/12/19 03:30:33;;;;;;;12.70;4.50;;;;;;;5.11;100.00;102839.81;5016679;28;20056;-83
2021/12/19 03:32:59;;;;;;;12.75;5.32;;;;;;;5.14;100.00;102844.13;5019653;28;20677;-83
2021/12/19 03:35:25;;;;;;;13.65;4.88;;;;;;;5.13;100.00;102834.44;5022301;28;20084;-84
2021/12/19 03:37:52;;;;;;;11.10;4.97;;;;;;;5.12;100.00;102832.69;4996281;28;20125;-83
2021/12/19 03:40:24;;;;;;;11.75;4.50;;;;;;;5.14;100.00;102825.50;5018979;28;20058;-83
2021/12/19 03:42:53;;;;;;;8.45;3.88;;;;;;;5.12;100.00;102822.03;5021296;28;20073;-83
2021/12/19 03:45:22;;;;;;;10.68;4.90;;;;;;;5.14;100.00;102818.38;5000315;28;20498;-83
2021/12/19 03:47:48;;;;;;;11.18;4.93;;;;;;;5.16;100.00;102816.50;5017797;28;20045;-83
2021/12/19 03:50:19;;;;;;;11.15;3.90;;;;;;;5.12;100.00;102814.94;5020470;28;20037;-82
2021/12/19 03:52:45;;;;;;;11.98;4.93;;;;;;;5.12;100.00;102820.28;5019686;28;20094;-82
2021/12/19 03:55:10;;;;;;;13.93;4.57;;;;;;;5.08;100.00;102816.03;5035176;28;20053;-83
2021/12/19 03:57:35;;;;;;;11.75;4.13;;;;;;;5.09;100.00;102804.47;5010706;28;20053;-83
2021/12/19 04:00:02;;;;;;;12.73;4.22;;;;;;;5.07;100.00;102802.81;5013231;28;20038;-83
2021/12/19 04:02:29;;;;;;;10.95;4.57;;;;;;;5.06;100.00;102803.75;5022540;28;20410;-82
2021/12/19 04:04:56;;;;;;;12.80;4.78;;;;;;;5.08;100.00;102802.72;4996296;28;20505;-83
2021/12/19 04:07:22;;;;;;;12.93;4.30;;;;;;;5.09;100.00;102801.81;5020578;28;20064;-82
2021/12/19 04:09:48;;;;;;;13.35;5.53;;;;;;;5.13;100.00;102800.69;5019490;28;20044;-83
2021/12/19 04:12:15;;;;;;;13.38;4.50;;;;;;;5.14;100.00;102801.53;5000048;28;20046;-83
2021/12/19 04:14:41;;;;;;;12.48;4.40;;;;;;;5.12;100.00;102793.66;5020828;28;20034;-83
2021/12/19 04:17:06;;;;;;;10.98;3.95;;;;;;;5.12;100.00;102795.44;5013298;28;20421;-83
2021/12/19 04:19:32;;;;;;;9.65;3.85;;;;;;;5.11;100.00;102797.25;5001325;28;20096;-83
2021/12/19 04:21:59;;;;;;;13.25;4.38;;;;;;;5.13;100.00;102789.19;5002300;28;20127;-82
2021/12/19 04:24:26;;;;;;;9.30;4.32;;;;;;;5.11;100.00;102786.59;5019366;28;20075;-82
2021/12/19 04:26:51;;;;;;;12.07;4.53;;;;;;;5.15;100.00;102779.31;5001115;28;20553;-83
2021/12/19 04:29:17;;;;;;;12.70;4.85;;;;;;;5.19;100.00;102794.19;5020491;28;20120;-83
2021/12/19 04:31:42;;;;;;;9.98;4.32;;;;;;;5.16;100.00;102781.91;5020504;28;20072;-83
2021/12/19 04:34:07;;;;;;;10.32;4.20;;;;;;;5.17;100.00;102774.75;5003606;28;20191;-82
2021/12/19 04:36:38;;;;;;;14.45;4.78;;;;;;;5.18;100.00;102772.03;5021520;28;20410;-83
2021/12/19 04:39:24;;;;;;;11.73;4.43;;;;;;;5.17;100.00;102767.63;5018332;28;20112;-82
2021/12/19 04:55:00;;;;;;;13.65;4.32;;;;;;;5.15;100.00;102772.22;5040584;28;20073;-83
2021/12/19 04:59:59;;;;;;;13.88;4.50;;;;;;;5.26;100.00;102773.41;5042349;28;20112;-83
2021/12/19 05:05:18;;;;;;;9.80;4.38;;;;;;;5.29;100.00;102773.25;4990244;28;20041;-83
2021/12/19 05:15:51;;;;;;;8.85;3.75;;;;;;;5.36;100.00;102767.53;5043579;28;20039;-82
2021/12/19 05:18:17;;;;;;;10.23;4.22;;;;;;;5.38;100.00;102762.09;5045656;28;20051;-83
2021/12/19 05:20:52;;;;;;;11.27;4.00;;;;;;;5.40;100.00;102762.91;5038708;28;20041;-83
2021/12/19 05:25:52;;;;;;;9.82;4.00;;;;;;;5.43;100.00;102752.06;5039201;28;20040;-82
2021/12/19 05:28:18;;;;;;;8.68;3.65;;;;;;;5.41;100.00;102752.19;5039660;28;20056;-82
2021/12/19 05:30:44;;;;;;;8.38;3.90;;;;;;;5.45;100.00;102744.03;5041544;28;20044;-83
2021/12/19 05:33:09;;;;;;;8.25;3.38;;;;;;;5.41;100.00;102754.84;5041948;28;20037;-83
2021/12/19 05:46:33;;;;;;;5.88;2.17;;;;;;;5.39;100.00;102722.09;5041228;28;20047;-83
2021/12/19 05:48:59;;;;;;;6.55;2.05;;;;;;;5.42;100.00;102737.06;5026379;28;20041;-83
2021/12/19 05:51:25;;;;;;;5.03;2.40;;;;;;;5.40;100.00;102731.78;5042583;28;20136;-83
2021/12/19 05:53:50;;;;;;;5.75;2.10;;;;;;;5.43;100.00;102734.28;5041156;28;20519;-83
2021/12/19 05:56:16;;;;;;;5.00;1.90;;;;;;;5.43;100.00;102728.97;5043827;28;20037;-83
2021/12/19 05:58:42;;;;;;;4.50;1.90;;;;;;;5.45;100.00;102738.69;5015457;28;20045;-83
2021/12/19 06:01:07;;;;;;;4.50;1.90;;;;;;;5.44;100.00;102729.84;5008857;28;20072;-83
2021/12/19 06:03:33;;;;;;;3.80;1.77;;;;;;;5.47;100.00;102735.00;5020399;28;20073;-82
2021/12/19 06:05:58;;;;;;;4.03;1.98;;;;;;;5.45;100.00;102730.72;5041898;28;20124;-83
2021/12/19 06:08:26;;;;;;;4.85;1.70;;;;;;;5.45;100.00;102739.53;5042782;28;20037;-82
2021/12/19 06:10:51;;;;;;;4.50;1.75;;;;;;;5.46;100.00;102741.25;5042420;28;20041;-83
2021/12/19 06:13:17;;;;;;;3.85;1.80;;;;;;;5.44;100.00;102729.84;5042664;28;20041;-84
2021/12/19 06:15:43;;;;;;;5.68;2.58;;;;;;;5.43;100.00;102720.97;5025752;28;20041;-83
2021/12/19 06:18:08;;;;;;;3.95;1.70;;;;;;;5.43;100.00;102717.47;5038165;28;20044;-83
2021/12/19 06:20:34;;;;;;;5.07;1.88;;;;;;;5.42;100.00;102715.75;5039339;28;20405;-84
2021/12/19 06:23:01;;;;;;;6.55;2.20;;;;;;;5.44;100.00;102713.88;5043515;28;20036;-83
2021/12/19 06:25:26;;;;;;;5.90;2.17;;;;;;;5.40;100.00;102702.50;5038820;28;20148;-83
2021/12/19 06:27:52;;;;;;;4.65;1.92;;;;;;;5.42;100.00;102708.63;5005838;28;20040;-83
2021/12/19 06:30:17;;;;;;;3.85;1.90;;;;;;;5.40;100.00;102693.66;5038826;28;20120;-83
2021/12/19 06:32:45;;;;;;;6.13;2.78;;;;;;;5.42;100.00;102697.97;5024924;28;20139;-84
2021/12/19 06:35:18;;;;;;;5.65;2.00;;;;;;;5.42;100.00;102703.28;5024607;28;20044;-83
2021/12/19 06:37:45;;;;;;;5.35;2.35;;;;;;;5.45;100.00;102714.72;5042674;28;20045;-83
2021/12/19 06:40:12;;;;;;;5.18;2.10;;;;;;;5.43;100.00;102706.81;5039606;28;20037;-83
2021/12/19 06:42:38;;;;;;;6.65;2.88;;;;;;;5.42;100.00;102705.97;4992367;28;20374;-83
2021/12/19 06:45:05;;;;;;;4.53;2.67;;;;;;;5.41;100.00;102706.91;5023715;28;20836;-84
2021/12/19 06:47:30;;;;;;;5.78;2.92;;;;;;;5.43;100.00;102709.47;5037785;28;20036;-84
2021/12/19 06:49:56;;;;;;;5.30;2.30;;;;;;;5.42;100.00;102705.97;5023219;28;20587;-84
2021/12/19 06:52:21;;;;;;;4.60;2.22;;;;;;;5.37;100.00;102702.69;5038480;28;20095;-85
2021/12/19 06:54:46;;;;;;;3.95;1.70;;;;;;;5.32;100.00;102707.41;5040755;28;20102;-83
2021/12/19 06:57:12;;;;;;;3.78;1.73;;;;;;;5.28;100.00;102711.16;5007713;28;20052;-83
2021/12/19 06:59:38;;;;;;;3.95;1.75;;;;;;;5.27;100.00;102696.16;5024365;28;20370;-84
2021/12/19 07:02:03;;;;;;;3.85;1.65;;;;;;;5.25;100.00;102702.50;5040275;28;20560;-84
2021/12/19 07:04:29;;;;;;;3.67;1.60;;;;;;;5.22;100.00;102703.53;5031859;28;20562;-84
2021/12/19 07:06:54;;;;;;;3.78;1.67;;;;;;;5.20;100.00;102705.41;5027378;28;20041;-84
2021/12/19 07:09:20;;;;;;;4.13;1.73;;;;;;;5.17;100.00;102710.88;5045857;28;20156;-84
2021/12/19 07:11:46;;;;;;;4.05;1.83;;;;;;;5.14;100.00;102711.91;5011541;28;20057;-85
2021/12/19 07:14:11;;;;;;;3.88;1.58;;;;;;;5.18;100.00;102708.16;4993802;28;20060;-84
2021/12/19 07:16:37;;;;;;;4.88;2.05;;;;;;;5.19;100.00;102709.88;5030752;28;20061;-85
2021/12/19 07:19:02;;;;;;;6.32;2.47;;;;;;;5.16;100.00;102710.03;5029054;28;20123;-84
2021/12/19 07:21:29;;;;;;;6.57;2.80;;;;;;;5.18;100.00;102702.84;5041065;28;20051;-84
2021/12/19 07:23:54;;;;;;;4.63;2.20;;;;;;;5.18;100.00;102705.50;5026292;28;20127;-84
2021/12/19 07:26:20;;;;;;;5.15;2.03;;;;;;;5.19;100.00;102701.03;5045449;28;20446;-84
2021/12/19 07:28:47;;;;;;;5.10;2.15;;;;;;;5.18;100.00;102701.97;5045916;28;20142;-84
2021/12/19 07:31:17;;;;;;;4.95;2.20;;;;;;;5.18;100.00;102694.84;5030377;28;20094;-85
2021/12/19 07:33:44;;;;;;;6.85;2.40;;;;;;;5.19;100.00;102695.69;5047530;28;20037;-84
2021/12/19 07:36:09;;;;;;;5.53;2.17;;;;;;;5.21;100.00;102688.50;5004720;28;20044;-84
2021/12/19 07:38:47;;;;;;;5.70;2.33;;;;;;;5.23;100.00;102701.72;5008541;28;20045;-85
2021/12/19 07:41:12;;;;;;;6.03;2.33;;;;;;;5.19;100.00;102688.56;5025895;28;20048;-84
2021/12/19 07:43:37;;;;;;;5.70;2.47;;;;;;;5.20;100.00;102690.28;5011714;28;20038;-85
2021/12/19 07:46:03;;;;;;;6.15;2.72;;;;;;;5.18;100.00;102676.22;5026882;28;20479;-84
2021/12/19 07:48:28;;;;;;;6.35;2.53;;;;;;;5.20;100.00;102684.97;5025059;28;20064;-84
2021/12/19 07:50:54;;;;;;;5.90;2.53;;;;;;;5.21;100.00;102680.53;5009871;28;20042;-84
2021/12/19 07:53:20;;;;;;;4.82;2.53;;;;;;;5.16;100.00;102672.78;5027706;28;20037;-85
2021/12/19 07:55:45;;;;;;;7.35;2.53;;;;;;;5.22;100.00;102678.72;5026172;28;20091;-84
2021/12/19 07:58:11;;;;;;;6.30;2.25;;;;;;;5.22;100.00;102676.91;5025456;28;20083;-84
2021/12/19 08:00:36;;;;;;;5.03;2.05;;;;;;;5.23;100.00;102677.75;5037410;28;20046;-84
2021/12/19 08:03:02;;;;;;;6.60;2.30;;;;;;;5.23;100.00;102667.09;5006876;28;20482;-83
2021/12/19 08:05:27;;;;;;;4.70;2.28;;;;;;;5.22;100.00;102671.59;5027023;28;20030;-83
2021/12/19 08:07:59;;;;;;;5.80;2.42;;;;;;;5.23;100.00;102667.09;5024317;28;20033;-84
2021/12/19 08:12:50;;;;;;;4.53;1.95;;;;;;;5.18;100.00;102676.22;5025612;28;20033;-84
2021/12/19 08:15:15;;;;;;;5.47;2.08;;;;;;;5.19;100.00;102685.91;5023455;28;20049;-85
2021/12/19 08:17:41;;;;;;;5.20;2.08;;;;;;;5.16;100.00;102672.78;5036139;28;20052;-84
2021/12/19 08:20:11;;;;;;;5.25;2.10;;;;;;;5.17;100.00;102671.81;5012959;28;20045;-85
2021/12/19 08:22:36;;;;;;;4.72;2.05;;;;;;;5.16;100.00;102680.75;5019441;28;20074;-85
2021/12/19 08:25:04;;;;;;;4.45;1.88;;;;;;;5.15;100.00;102681.72;5024365;28;20065;-84
2021/12/19 08:27:30;;;;;;;4.97;2.22;;;;;;;5.18;100.00;102672.72;5027471;28;20042;-84
2021/12/19 08:29:55;;;;;;;4.35;1.85;;;;;;;5.22;100.00;102670.72;5013773;28;20041;-85
2021/12/19 08:32:24;;;;;;;4.90;2.28;;;;;;;5.19;100.00;102661.97;5009032;28;20059;-85
2021/12/19 08:34:50;;;;;;;3.55;2.15;;;;;;;5.23;100.00;102661.78;5032273;28;20037;-84
2021/12/19 08:37:15;;;;;;;4.55;2.47;;;;;;;5.23;100.00;102665.31;5035272;28;20668;-85
2021/12/19 08:39:42;;;;;;;4.53;2.25;;;;;;;5.25;100.00;102666.09;5025161;28;20033;-84
2021/12/19 08:42:09;;;;;;;6.72;2.78;;;;;;;5.27;100.00;102668.69;5027094;28;20050;-85
2021/12/19 08:44:35;;;;;;;4.93;2.30;;;;;;;5.28;100.00;102662.41;5028208;28;20041;-86
2021/12/19 08:47:01;;;;;;;7.65;3.08;;;;;;;5.28;100.00;102654.41;5019818;28;20456;-85
2021/12/19 08:49:26;;;;;;;5.10;2.55;;;;;;;5.29;100.00;102658.78;5029201;28;20130;-85
2021/12/19 08:51:55;;;;;;;5.50;3.13;;;;;;;5.29;100.00;102656.13;5034553;28;20045;-85
2021/12/19 08:54:22;;;;;;;6.75;3.50;;;;;;;5.31;100.00;102659.56;5030264;28;20041;-85
2021/12/19 08:56:51;;;;;;;7.00;3.42;;;;;;;5.32;100.00;102655.94;5022448;28;20048;-86
2021/12/19 08:59:16;;;;;;;8.40;3.97;;;;;;;5.33;100.00;102663.88;5007459;28;20098;-85
2021/12/19 09:01:42;;;;;;;8.82;4.32;;;;;;;5.35;100.00;102655.78;5013660;28;20128;-86
2021/12/19 09:04:07;;;;;;;7.60;4.35;;;;;;;5.37;100.00;102653.91;5024941;28;20038;-85
2021/12/19 09:06:34;;;;;;;8.15;4.07;;;;;;;5.36;100.00;102647.72;5029586;28;20095;-86
2021/12/19 09:09:01;;;;;;;9.43;4.63;;;;;;;5.38;100.00;102656.50;5029104;28;20046;-86
2021/12/19 09:11:27;;;;;;;10.13;4.70;;;;;;;5.39;100.00;102652.88;5028600;28;20045;-85
2021/12/19 09:13:52;;;;;;;8.38;4.68;;;;;;;5.42;100.00;102651.84;5008154;28;20051;-85
2021/12/19 09:16:18;;;;;;;9.88;5.13;;;;;;;5.41;100.00;102653.66;5024424;28;20037;-85
2021/12/19 09:18:44;;;;;;;10.18;4.85;;;;;;;5.43;100.00;102653.56;5029183;28;20040;-84
2021/12/19 09:21:09;;;;;;;9.27;4.72;;;;;;;5.44;100.00;102644.66;4990482;28;20041;-85
2021/12/19 09:23:34;;;;;;;11.18;5.00;;;;;;;5.43;100.00;102645.56;5024878;28;20056;-85
2021/12/19 09:26:01;;;;;;;8.45;4.45;;;;;;;5.44;100.00;102649.97;5009795;28;20042;-84
2021/12/19 09:28:26;;;;;;;9.75;4.68;;;;;;;5.45;100.00;102640.16;5024262;28;20042;-85
2021/12/19 09:30:52;;;;;;;12.05;5.43;;;;;;;5.46;100.00;102637.41;5024174;28;20634;-85
2021/12/19 09:33:17;;;;;;;11.25;5.30;;;;;;;5.49;100.00;102647.03;5014624;28;20092;-85
2021/12/19 09:35:43;;;;;;;10.43;5.15;;;;;;;5.48;100.00;102635.53;5001635;28;20108;-85
2021/12/19 09:38:09;;;;;;;11.25;5.00;;;;;;;5.50;100.00;102649.63;5020412;28;20045;-85
2021/12/19 09:40:39;;;;;;;15.15;7.35;;;;;;;5.51;100.00;102651.34;5002883;28;20095;-86
2021/12/19 09:43:41;;;;;;;15.25;6.25;;;;;;;5.52;100.00;102636.19;5023516;28;20533;-86
2021/12/19 09:46:00;;;;;;;12.20;6.57;;;;;;;5.51;100.00;102637.16;5023193;28;20092;-86
2021/12/19 09:48:26;;;;;;;16.05;8.13;;;;;;;5.52;100.00;102636.19;5022282;28;20100;-85
2021/12/19 09:50:53;;;;;;;14.73;7.28;;;;;;;5.54;100.00;102629.00;5026091;28;20042;-85
2021/12/19 09:53:20;;;;;;;16.08;8.02;;;;;;;5.57;100.00;102636.81;5032723;28;20445;-85
2021/12/19 09:55:45;;;;;;;18.13;9.43;;;;;;;5.56;100.00;102627.97;5020626;28;20045;-86
2021/12/19 09:58:10;;;;;;;17.52;9.80;;;;;;;5.57;100.00;102624.34;5023591;28;20505;-85
2021/12/19 10:00:36;;;;;;;18.30;9.63;;;;;;;5.56;100.00;102617.31;4999827;28;20075;-85
2021/12/19 10:03:01;;;;;;;11.85;5.95;;;;;;;5.58;100.00;102625.19;5019610;28;20053;-85
2021/12/19 10:05:27;;;;;;;18.08;8.98;;;;;;;5.58;100.00;102618.09;5019173;28;20575;-85
2021/12/19 10:08:03;;;;;;;16.02;8.55;;;;;;;5.60;100.00;102612.66;5036590;28;20133;-85
2021/12/19 10:11:14;;;;;;;20.30;9.55;;;;;;;5.61;100.00;102609.94;5020797;28;20073;-86
2021/12/19 10:13:35;;;;;;;21.05;10.18;;;;;;;5.60;100.00;102602.88;5020480;28;20045;-85
2021/12/19 10:16:02;;;;;;;19.58;8.55;;;;;;;5.63;100.00;102597.34;5016940;28;20049;-85
2021/12/19 10:18:27;;;;;;;17.77;9.38;;;;;;;5.65;100.00;102597.28;5020032;28;20080;-86
2021/12/19 10:20:58;;;;;;;20.55;10.07;;;;;;;5.64;100.00;102596.44;5024044;28;20053;-85
2021/12/19 10:23:35;;;;;;;19.75;11.00;;;;;;;5.69;100.00;102589.97;5025790;28;20048;-86
2021/12/19 10:26:08;;;;;;;20.02;10.88;;;;;;;5.70;100.00;102589.00;5021593;28;20095;-85
2021/12/19 10:28:51;;;;;;;21.40;12.45;;;;;;;5.71;100.00;102594.25;5022662;28;20073;-85
2021/12/19 10:31:17;;;;;;;22.23;10.65;;;;;;;5.72;100.00;102600.44;5037071;28;20605;-86
2021/12/19 10:33:43;;;;;;;20.25;10.00;;;;;;;5.71;100.00;102583.59;5027541;28;20033;-85
2021/12/19 10:36:09;;;;;;;20.92;10.00;;;;;;;5.74;100.00;102587.91;5026748;28;20100;-86
2021/12/19 10:38:42;;;;;;;20.00;10.43;;;;;;;5.74;100.00;102582.56;5027219;28;20553;-85
2021/12/19 10:41:07;;;;;;;21.23;9.15;;;;;;;5.75;100.00;102584.28;5024494;28;20337;-85
2021/12/19 10:43:40;;;;;;;18.50;9.93;;;;;;;5.77;100.00;102577.91;5021113;28;20041;-85
2021/12/19 10:46:09;;;;;;;20.33;10.27;;;;;;;5.78;100.00;102584.09;5041751;28;20075;-86
2021/12/19 10:48:42;;;;;;;20.73;9.80;;;;;;;5.77;100.00;102577.06;5040732;28;20048;-85
2021/12/19 10:51:07;;;;;;;20.40;10.45;;;;;;;5.78;100.00;102577.00;5025998;28;20045;-86
2021/12/19 10:53:37;;;;;;;20.98;9.80;;;;;;;5.78;100.00;102578.78;5041824;28;20048;-86
2021/12/19 10:56:26;;;;;;;20.00;9.25;;;;;;;5.76;100.00;102572.69;5034838;28;20048;-85
2021/12/19 10:58:56;;;;;;;16.00;7.57;;;;;;;5.80;100.00;102568.91;5014881;28;20043;-85
2021/12/19 11:01:32;;;;;;;19.20;7.65;;;;;;;5.79;100.00;102569.84;5036537;28;20055;-85
2021/12/19 11:04:21;;;;;;;16.48;8.27;;;;;;;5.80;100.00;102567.09;5037887;28;20045;-86
2021/12/19 11:06:57;;;;;;;17.98;8.95;;;;;;;5.80;100.00;102560.91;5042406;28;20049;-85
2021/12/19 11:09:24;;;;;;;19.48;9.32;;;;;;;5.81;100.00;102562.59;5027602;28;20132;-87
2021/12/19 11:11:57;;;;;;;16.45;8.45;;;;;;;5.81;100.00;102559.94;5007479;28;20576;-86
2021/12/19 11:14:26;;;;;;;18.50;9.70;;;;;;;5.83;100.00;102561.56;5026922;28;20048;-86
2021/12/19 11:16:56;;;;;;;19.08;8.20;;;;;;;5.84;100.00;102557.09;5041461;28;20043;-86
2021/12/19 11:19:23;;;;;;;14.23;8.55;;;;;;;5.86;100.00;102552.53;5026185;28;20037;-86
2021/12/19 11:21:48;;;;;;;15.85;7.75;;;;;;;5.84;100.00;102550.00;5020515;28;20033;-85
2021/12/19 11:24:17;;;;;;;16.15;7.25;;;;;;;5.85;100.00;102548.19;5038177;28;20490;-86
2021/12/19 11:26:45;;;;;;;16.00;7.95;;;;;;;5.86;100.00;102533.91;5004684;28;20513;-85
2021/12/19 11:29:12;;;;;;;13.20;7.03;;;;;;;5.87;100.00;102546.28;5036463;28;20048;-86
2021/12/19 11:31:39;;;;;;;14.45;8.25;;;;;;;5.88;100.00;102529.34;5020891;28;20564;-86
2021/12/19 11:34:23;;;;;;;17.95;9.25;;;;;;;5.88;100.00;102521.34;5040514;28;20379;-86
2021/12/19 11:36:54;;;;;;;15.93;8.38;;;;;;;5.92;100.00;102512.19;5009523;28;20709;-85
2021/12/19 11:39:24;;;;;;;18.05;9.05;;;;;;;5.88;100.00;102521.34;5027992;28;20140;-86
2021/12/19 11:42:10;;;;;;;15.70;7.90;;;;;;;5.92;100.00;102512.19;5020436;28;20052;-86
2021/12/19 11:44:43;;;;;;;17.33;8.32;;;;;;;5.91;100.00;102507.00;5014625;28;20493;-85
2021/12/19 11:47:14;;;;;;;14.10;8.07;;;;;;;5.92;100.00;102516.69;5008075;28;20050;-86
2021/12/19 11:49:40;;;;;;;21.25;9.00;;;;;;;5.90;100.00;102511.47;4989664;28;20559;-85
2021/12/19 11:52:26;;;;;;;16.10;8.80;;;;;;;5.93;100.00;102503.31;5020024;28;20056;-85
2021/12/19 11:55:13;;;;;;;16.08;6.85;;;;;;;5.92;100.00;102501.53;5046778;28;20040;-86
2021/12/19 11:57:43;;;;;;;18.98;10.23;;;;;;;5.96;100.00;102488.94;5042175;28;20041;-85
2021/12/19 12:00:29;;;;;;;18.52;9.15;;;;;;;5.95;100.00;102485.41;5043321;28;20037;-85
2021/12/19 12:03:13;;;;;;;16.08;8.25;;;;;;;5.94;100.00;102485.50;5025978;28;20095;-84
2021/12/19 12:05:43;;;;;;;17.67;7.85;;;;;;;5.95;100.00;102464.09;5042847;28;20055;-85
2021/12/19 12:08:12;;;;;;;13.65;8.15;;;;;;;5.95;100.00;102458.75;5026745;28;20088;-84
2021/12/19 12:13:21;;;;;;;14.20;8.05;;;;;;;5.99;100.00;102448.78;5019369;28;20258;-85
2021/12/19 12:15:50;;;;;;;16.17;7.22;;;;;;;5.99;100.00;102449.66;5025403;28;20067;-84
2021/12/19 12:18:37;;;;;;;13.85;7.65;;;;;;;6.04;100.00;102444.91;5048290;28;20092;-84
2021/12/19 12:21:17;;;;;;;11.98;6.25;;;;;;;6.03;100.00;102443.16;5007889;28;20073;-84
2021/12/19 12:23:51;;;;;;;14.25;6.60;;;;;;;6.03;100.00;102445.81;5021151;28;20037;-84
2021/12/19 12:26:28;;;;;;;13.77;6.75;;;;;;;6.03;100.00;102421.84;5024674;28;20141;-85
2021/12/19 12:28:55;;;;;;;16.90;7.18;;;;;;;6.05;100.00;102437.75;5021832;28;20198;-83
2021/12/19 12:31:20;;;;;;;13.70;7.03;;;;;;;6.04;100.00;102431.56;5022340;28;20080;-84